createdAt,value
2022-10-22T00:00:18.093Z,2.60
2022-10-22T00:02:45.961Z,2.10
2022-10-22T00:05:13.805Z,2.57
2022-10-22T00:07:42.928Z,2.30
2022-10-22T00:10:11.174Z,1.97
2022-10-22T00:12:40.151Z,2.20
2022-10-22T00:15:08.660Z,2.30
2022-10-22T00:17:36.174Z,2.47
2022-10-22T00:20:03.726Z,2.27
2022-10-22T00:22:31.196Z,2.80
2022-10-22T00:25:00.022Z,2.40
2022-10-22T00:27:27.521Z,2.30
2022-10-22T00:29:54.993Z,2.23
2022-10-22T00:32:22.496Z,2.47
2022-10-22T00:34:49.958Z,1.90
2022-10-22T00:37:17.473Z,2.77
2022-10-22T00:39:44.908Z,2.60
2022-10-22T00:42:19.203Z,2.90
2022-10-22T00:45:03.123Z,2.50
2022-10-22T00:47:33.170Z,2.90
2022-10-22T00:50:01.228Z,2.70
2022-10-22T00:52:29.469Z,2.83
2022-10-22T00:54:58.309Z,2.63
2022-10-22T00:57:27.561Z,2.80
2022-10-22T00:59:55.466Z,2.70
2022-10-22T01:02:22.956Z,2.57
2022-10-22T01:04:50.485Z,2.30
2022-10-22T01:07:19.960Z,2.70
2022-10-22T01:09:53.780Z,2.30
2022-10-22T01:12:28.557Z,2.30
2022-10-22T01:15:06.233Z,2.57
2022-10-22T01:17:36.777Z,2.30
2022-10-22T01:20:15.059Z,2.90
2022-10-22T01:22:45.207Z,2.50
2022-10-22T01:25:18.461Z,3.10
2022-10-22T01:27:54.971Z,2.77
2022-10-22T01:30:24.413Z,3.10
2022-10-22T01:32:53.543Z,2.57
2022-10-22T01:35:23.886Z,2.57
2022-10-22T01:37:54.418Z,2.60
2022-10-22T01:40:23.053Z,2.83
2022-10-22T01:42:58.489Z,2.80
2022-10-22T01:45:27.757Z,2.97
2022-10-22T01:48:01.162Z,2.77
2022-10-22T01:50:39.202Z,2.60
2022-10-22T01:53:26.933Z,2.90
2022-10-22T01:56:13.987Z,2.87
2022-10-22T01:58:45.853Z,3.40
2022-10-22T02:01:19.624Z,2.53
2022-10-22T02:03:50.041Z,3.07
2022-10-22T02:06:20.196Z,2.83
2022-10-22T02:08:48.498Z,2.40
2022-10-22T02:11:16.664Z,2.13
2022-10-22T02:13:46.252Z,2.50
2022-10-22T02:16:19.625Z,3.30
2022-10-22T02:18:48.698Z,2.37
2022-10-22T02:21:16.972Z,2.17
2022-10-22T02:23:44.800Z,1.80
2022-10-22T02:26:17.025Z,1.80
2022-10-22T02:28:51.347Z,2.17
2022-10-22T02:31:22.355Z,1.87
2022-10-22T02:33:52.963Z,2.17
2022-10-22T02:36:21.052Z,2.53
2022-10-22T02:38:49.378Z,1.67
2022-10-22T02:41:17.148Z,1.90
2022-10-22T02:43:45.937Z,1.43
2022-10-22T02:46:13.475Z,1.67
2022-10-22T02:48:42.306Z,1.60
2022-10-22T02:51:09.803Z,1.80
2022-10-22T02:53:37.445Z,1.80
2022-10-22T02:56:06.031Z,2.33
2022-10-22T02:58:33.547Z,1.70
2022-10-22T03:01:01.096Z,1.40
2022-10-22T03:03:28.635Z,1.70
2022-10-22T03:05:57.429Z,2.70
2022-10-22T03:08:25.000Z,1.90
2022-10-22T03:10:52.700Z,1.27
2022-10-22T03:13:20.159Z,1.50
2022-10-22T03:15:49.580Z,1.03
2022-10-22T03:18:17.531Z,1.30
2022-10-22T03:20:45.337Z,1.40
2022-10-22T03:23:15.618Z,2.00
2022-10-22T03:25:44.342Z,1.53
2022-10-22T03:28:15.093Z,1.30
2022-10-22T03:30:42.540Z,1.57
2022-10-22T03:33:10.013Z,1.33
2022-10-22T03:35:42.930Z,2.70
2022-10-22T03:38:10.466Z,1.57
2022-10-22T03:40:39.407Z,1.20
2022-10-22T03:43:06.973Z,1.20
2022-10-22T03:45:34.474Z,1.33
2022-10-22T03:48:01.968Z,1.10
2022-10-22T03:50:29.708Z,1.10
2022-10-22T03:52:58.119Z,1.67
2022-10-22T03:55:25.649Z,1.17
2022-10-22T03:57:54.449Z,1.03
2022-10-22T04:00:22.188Z,1.07
2022-10-22T04:02:49.653Z,1.00
2022-10-22T04:05:17.208Z,1.30
2022-10-22T04:07:44.683Z,1.00
2022-10-22T04:10:12.141Z,1.07
2022-10-22T04:12:39.613Z,1.60
2022-10-22T04:15:10.110Z,1.20
2022-10-22T04:17:38.421Z,0.90
2022-10-22T04:20:07.101Z,1.20
2022-10-22T04:22:35.076Z,1.00
2022-10-22T04:25:02.729Z,1.20
2022-10-22T04:27:31.296Z,1.20
2022-10-22T04:29:58.735Z,1.03
2022-10-22T04:32:27.666Z,1.10
2022-10-22T04:34:55.177Z,1.90
2022-10-22T04:37:22.782Z,1.27
2022-10-22T04:39:50.236Z,1.03
2022-10-22T04:42:17.770Z,1.03
2022-10-22T04:44:45.262Z,1.17
2022-10-22T04:47:12.796Z,1.20
2022-10-22T04:49:41.617Z,1.30
2022-10-22T04:52:09.076Z,1.00
2022-10-22T04:54:36.531Z,1.10
2022-10-22T04:57:04.031Z,1.57
2022-10-22T04:59:31.557Z,1.07
2022-10-22T05:01:59.007Z,1.00
2022-10-22T05:04:26.544Z,1.20
2022-10-22T05:06:55.439Z,1.07
2022-10-22T05:09:22.916Z,1.03
2022-10-22T05:11:52.362Z,1.10
2022-10-22T05:14:21.661Z,1.13
2022-10-22T05:16:49.553Z,1.10
2022-10-22T05:19:19.129Z,1.03
2022-10-22T05:21:46.575Z,1.40
2022-10-22T05:24:15.425Z,1.77
2022-10-22T05:26:42.923Z,1.83
2022-10-22T05:29:10.392Z,1.30
2022-10-22T05:31:38.803Z,1.10
2022-10-22T05:34:06.249Z,1.10
2022-10-22T05:36:33.737Z,1.20
2022-10-22T05:39:01.219Z,1.30
2022-10-22T05:41:31.444Z,1.37
2022-10-22T05:44:00.391Z,1.60
2022-10-22T05:46:29.741Z,1.00
2022-10-22T05:48:59.008Z,1.20
2022-10-22T05:51:27.610Z,1.40
2022-10-22T05:53:56.395Z,0.83
2022-10-22T05:56:24.419Z,1.10
2022-10-22T05:58:53.336Z,1.47
2022-10-22T06:01:22.698Z,1.27
2022-10-22T06:03:50.570Z,1.20
2022-10-22T06:06:21.191Z,1.30
2022-10-22T06:08:50.137Z,1.63
2022-10-22T06:11:18.350Z,1.30
2022-10-22T06:13:45.915Z,1.10
2022-10-22T06:16:15.250Z,1.13
2022-10-22T06:18:42.862Z,1.00
2022-10-22T06:21:11.784Z,1.40
2022-10-22T06:23:39.884Z,1.40
2022-10-22T06:26:08.140Z,1.40
2022-10-22T06:28:36.367Z,1.23
2022-10-22T06:31:04.906Z,1.00
2022-10-22T06:33:37.089Z,0.90
2022-10-22T06:36:08.386Z,0.80
2022-10-22T06:38:35.987Z,1.30
2022-10-22T06:41:04.879Z,1.17
2022-10-22T06:43:32.470Z,0.87
2022-10-22T06:46:01.364Z,1.00
2022-10-22T06:48:29.135Z,1.20
2022-10-22T06:50:58.084Z,1.10
2022-10-22T06:53:25.586Z,1.03
2022-10-22T06:55:53.142Z,0.90
2022-10-22T06:58:20.598Z,1.27
2022-10-22T07:00:48.120Z,1.17
2022-10-22T07:03:16.470Z,1.10
2022-10-22T07:05:44.024Z,1.40
2022-10-22T07:08:12.828Z,0.90
2022-10-22T07:10:40.402Z,1.50
2022-10-22T07:13:07.893Z,1.20
2022-10-22T07:15:35.469Z,1.27
2022-10-22T07:18:04.620Z,1.23
2022-10-22T07:20:32.112Z,1.07
2022-10-22T07:22:59.571Z,1.43
2022-10-22T07:25:28.442Z,1.20
2022-10-22T07:27:56.024Z,1.20
2022-10-22T07:30:23.534Z,1.30
2022-10-22T07:32:51.018Z,1.10
2022-10-22T07:35:18.516Z,1.27
2022-10-22T07:37:46.009Z,0.97
2022-10-22T07:40:15.440Z,1.23
2022-10-22T07:42:47.085Z,1.30
2022-10-22T07:45:15.215Z,1.00
2022-10-22T07:47:43.659Z,1.83
2022-10-22T07:50:11.738Z,1.03
2022-10-22T07:52:39.667Z,0.90
2022-10-22T07:55:08.128Z,1.07
2022-10-22T07:57:36.925Z,0.83
2022-10-22T08:00:06.632Z,1.20
2022-10-22T08:02:34.261Z,0.90
2022-10-22T08:05:01.737Z,0.90
2022-10-22T08:07:29.453Z,1.17
2022-10-22T08:09:57.171Z,1.00
2022-10-22T08:12:24.759Z,0.73
2022-10-22T08:14:52.272Z,0.93
2022-10-22T08:17:21.134Z,0.80
2022-10-22T08:19:48.621Z,0.80
2022-10-22T08:22:16.104Z,0.80
2022-10-22T08:24:43.618Z,0.80
2022-10-22T08:27:11.092Z,0.93
2022-10-22T08:29:38.589Z,0.70
2022-10-22T08:32:06.485Z,0.80
2022-10-22T08:34:35.333Z,0.50
2022-10-22T08:37:02.871Z,0.70
2022-10-22T08:39:30.505Z,1.37
2022-10-22T08:42:06.080Z,0.57
2022-10-22T08:44:46.586Z,0.60
2022-10-22T08:47:23.286Z,1.37
2022-10-22T08:49:54.647Z,0.90
2022-10-22T08:52:23.003Z,2.17
2022-10-22T08:54:54.157Z,2.30
2022-10-22T08:57:33.648Z,1.00
2022-10-22T09:00:05.705Z,1.27
2022-10-22T09:02:39.327Z,0.83
2022-10-22T09:05:21.936Z,1.03
2022-10-22T09:07:50.349Z,1.00
2022-10-22T09:10:19.083Z,0.80
2022-10-22T09:12:46.877Z,1.10
2022-10-22T09:15:15.266Z,0.70
2022-10-22T09:17:52.246Z,0.60
2022-10-22T09:20:28.486Z,0.80
2022-10-22T09:23:02.845Z,0.60
2022-10-22T09:25:32.747Z,0.80
2022-10-22T09:28:00.261Z,1.00
2022-10-22T09:30:29.735Z,1.20
2022-10-22T09:33:01.813Z,1.23
2022-10-22T09:35:34.598Z,0.57
2022-10-22T09:38:08.972Z,0.50
2022-10-22T09:40:44.278Z,0.50
2022-10-22T09:43:14.201Z,0.60
2022-10-22T09:45:42.300Z,0.50
2022-10-22T09:48:20.517Z,1.20
2022-10-22T09:50:56.231Z,0.80
2022-10-22T09:53:28.294Z,0.60
2022-10-22T09:55:58.667Z,0.90
2022-10-22T09:58:26.578Z,0.60
2022-10-22T10:00:56.783Z,0.60
2022-10-22T10:03:26.335Z,0.60
2022-10-22T10:06:00.171Z,0.60
2022-10-22T10:08:30.819Z,0.97
2022-10-22T10:11:02.105Z,1.10
2022-10-22T10:13:45.798Z,0.70
2022-10-22T10:16:22.891Z,1.83
2022-10-22T10:19:04.187Z,0.50
2022-10-22T10:21:39.355Z,0.63
2022-10-22T10:24:15.013Z,0.53
2022-10-22T10:26:47.569Z,0.70
2022-10-22T10:29:25.137Z,0.50
2022-10-22T10:32:04.368Z,0.50
2022-10-22T10:34:40.868Z,0.70
2022-10-22T10:37:18.638Z,0.70
2022-10-22T10:40:06.477Z,0.60
2022-10-22T10:42:37.795Z,0.80
2022-10-22T10:45:17.429Z,0.57
2022-10-22T10:48:30.357Z,0.73
2022-10-22T10:51:05.423Z,0.77
2022-10-22T10:53:45.678Z,0.67
2022-10-22T10:56:26.201Z,0.50
2022-10-22T10:59:02.502Z,0.60
2022-10-22T11:01:37.115Z,0.60
2022-10-22T11:04:21.461Z,1.90
2022-10-22T11:06:50.228Z,0.93
2022-10-22T11:09:24.663Z,1.77
2022-10-22T11:11:54.995Z,0.80
2022-10-22T11:14:27.889Z,1.67
2022-10-22T11:17:01.599Z,3.60
2022-10-22T11:19:50.176Z,4.07
2022-10-22T11:22:26.584Z,0.90
2022-10-22T11:24:58.353Z,1.57
2022-10-22T11:27:29.818Z,0.60
2022-10-22T11:30:01.907Z,1.50
2022-10-22T11:32:29.525Z,2.63
2022-10-22T11:34:59.617Z,1.03
2022-10-22T11:37:34.392Z,0.80
2022-10-22T11:40:06.591Z,0.70
2022-10-22T11:42:36.587Z,0.90
2022-10-22T11:45:06.628Z,0.70
2022-10-22T11:47:35.874Z,0.80
2022-10-22T11:50:19.115Z,0.60
2022-10-22T11:52:55.124Z,1.37
2022-10-22T11:55:34.220Z,1.17
2022-10-22T11:58:03.819Z,1.00
2022-10-22T12:00:41.242Z,0.50
2022-10-22T12:03:18.204Z,0.60
2022-10-22T12:05:46.305Z,0.80
2022-10-22T12:08:19.285Z,0.60
2022-10-22T12:10:59.302Z,1.63
2022-10-22T12:13:28.851Z,0.80
2022-10-22T12:15:59.589Z,1.73
2022-10-22T12:18:29.403Z,0.80
2022-10-22T12:20:56.891Z,0.87
2022-10-22T12:23:33.293Z,0.73
2022-10-22T12:26:02.361Z,1.07
2022-10-22T12:28:29.819Z,0.77
2022-10-22T12:31:00.448Z,0.60
2022-10-22T12:33:28.205Z,0.97
2022-10-22T12:35:57.523Z,0.60
2022-10-22T12:38:26.456Z,0.80
2022-10-22T12:40:56.310Z,0.80
2022-10-22T12:43:27.883Z,0.73
2022-10-22T12:45:55.703Z,0.70
2022-10-22T12:48:25.304Z,0.60
2022-10-22T12:50:54.603Z,0.90
2022-10-22T12:53:26.352Z,1.20
2022-10-22T12:55:55.322Z,0.70
2022-10-22T12:58:28.360Z,0.53
2022-10-22T13:01:02.066Z,0.80
2022-10-22T13:03:32.793Z,0.60
2022-10-22T13:06:13.230Z,0.70
2022-10-22T13:08:41.268Z,0.40
2022-10-22T13:11:10.199Z,0.90
2022-10-22T13:13:48.357Z,0.67
2022-10-22T13:16:18.710Z,0.60
2022-10-22T13:18:47.465Z,0.77
2022-10-22T13:21:26.307Z,0.90
2022-10-22T13:23:57.406Z,0.80
2022-10-22T13:26:26.224Z,0.80
2022-10-22T13:28:56.856Z,0.97
2022-10-22T13:31:26.781Z,0.70
2022-10-22T13:33:57.471Z,1.00
2022-10-22T13:36:25.695Z,1.20
2022-10-22T13:38:53.314Z,0.87
2022-10-22T13:41:23.014Z,0.67
2022-10-22T13:43:50.849Z,1.30
2022-10-22T13:46:19.848Z,0.90
2022-10-22T13:48:48.356Z,0.90
2022-10-22T13:51:17.823Z,0.80
2022-10-22T13:53:46.561Z,0.73
2022-10-22T13:56:16.437Z,1.50
2022-10-22T13:58:44.721Z,0.70
2022-10-22T14:01:21.677Z,0.70
2022-10-22T14:03:50.406Z,0.70
2022-10-22T14:06:19.708Z,1.03
2022-10-22T14:08:50.448Z,1.03
2022-10-22T14:11:18.500Z,0.80
2022-10-22T14:13:45.969Z,0.70
2022-10-22T14:16:17.874Z,1.07
2022-10-22T14:18:47.314Z,1.73
2022-10-22T14:21:15.877Z,0.63
2022-10-22T14:23:44.993Z,1.43
2022-10-22T14:26:20.896Z,1.33
2022-10-22T14:29:08.720Z,0.97
2022-10-22T14:31:36.314Z,1.40
2022-10-22T14:34:05.211Z,0.90
2022-10-22T14:36:32.717Z,2.00
2022-10-22T14:39:00.263Z,2.40
2022-10-22T14:41:29.775Z,2.70
2022-10-22T14:43:59.434Z,1.30
2022-10-22T14:46:26.898Z,1.10
2022-10-22T14:48:54.423Z,0.70
2022-10-22T14:51:23.496Z,0.70
2022-10-22T14:53:51.301Z,0.73
2022-10-22T14:56:21.148Z,1.00
2022-10-22T14:58:49.058Z,2.20
2022-10-22T15:01:16.626Z,0.70
2022-10-22T15:03:44.090Z,1.10
2022-10-22T15:06:11.592Z,1.60
2022-10-22T15:08:40.504Z,2.20
2022-10-22T15:11:10.649Z,3.50
2022-10-22T15:13:39.158Z,1.90
2022-10-22T15:16:07.481Z,1.10
2022-10-22T15:18:35.020Z,1.17
2022-10-22T15:21:05.183Z,1.00
2022-10-22T15:23:33.073Z,1.30
2022-10-22T15:26:02.012Z,0.90
2022-10-22T15:28:30.401Z,0.73
2022-10-22T15:30:59.815Z,1.10
2022-10-22T15:33:28.939Z,0.83
2022-10-22T15:35:57.171Z,1.23
2022-10-22T15:41:05.419Z,1.23
2022-10-22T15:43:33.800Z,1.33
2022-10-22T15:46:10.973Z,1.43
2022-10-22T15:48:38.740Z,1.87
2022-10-22T15:51:10.886Z,2.20
2022-10-22T15:53:38.756Z,2.23
2022-10-22T15:56:08.483Z,2.23
2022-10-22T15:58:36.071Z,1.40
2022-10-22T16:01:07.604Z,1.70
2022-10-22T16:03:35.337Z,1.00
2022-10-22T16:06:03.055Z,1.93
2022-10-22T16:08:30.627Z,1.20
2022-10-22T16:10:58.491Z,1.67
2022-10-22T16:13:27.429Z,1.70
2022-10-22T16:15:55.918Z,1.50
2022-10-22T16:18:24.024Z,1.40
2022-10-22T16:20:51.540Z,1.17
2022-10-22T16:23:20.750Z,1.30
2022-10-22T16:25:48.241Z,0.70
2022-10-22T16:28:15.714Z,0.93
2022-10-22T16:30:44.564Z,1.10
2022-10-22T16:33:12.627Z,1.10
2022-10-22T16:35:43.685Z,2.00
2022-10-22T16:38:12.173Z,1.23
2022-10-22T16:40:39.808Z,0.90
2022-10-22T16:43:07.335Z,1.20
2022-10-22T16:45:34.827Z,1.70
2022-10-22T16:48:03.822Z,1.77
2022-10-22T16:50:31.372Z,1.70
2022-10-22T16:52:58.876Z,1.70
2022-10-22T16:55:26.377Z,1.30
2022-10-22T16:57:54.320Z,2.20
2022-10-22T17:00:22.107Z,2.10
2022-10-22T17:02:53.871Z,1.10
2022-10-22T17:05:23.391Z,1.50
2022-10-22T17:07:51.246Z,1.40
2022-10-22T17:10:19.613Z,0.83
2022-10-22T17:12:47.542Z,1.97
2022-10-22T17:15:15.659Z,1.20
2022-10-22T17:17:43.431Z,1.40
2022-10-22T17:20:12.196Z,1.00
2022-10-22T17:22:41.302Z,1.13
2022-10-22T17:25:12.585Z,0.80
2022-10-22T17:27:40.554Z,0.90
2022-10-22T17:30:09.768Z,1.53
2022-10-22T17:32:38.908Z,1.50
2022-10-22T17:35:07.708Z,2.30
2022-10-22T17:37:35.911Z,1.30
2022-10-22T17:40:06.067Z,1.00
2022-10-22T17:42:33.551Z,1.33
2022-10-22T17:45:01.034Z,0.90
2022-10-22T17:47:28.579Z,1.10
2022-10-22T17:49:56.148Z,1.40
2022-10-22T17:52:23.783Z,1.93
2022-10-22T17:54:51.516Z,2.10
2022-10-22T17:57:20.361Z,3.27
2022-10-22T17:59:47.823Z,1.53
2022-10-22T18:02:17.240Z,1.97
2022-10-22T18:04:45.239Z,2.40
2022-10-22T18:07:13.501Z,2.03
2022-10-22T18:09:42.715Z,2.63
2022-10-22T18:12:11.726Z,3.07
2022-10-22T18:14:41.125Z,2.67
2022-10-22T18:17:09.234Z,3.00
2022-10-22T18:19:36.843Z,2.63
2022-10-22T18:22:05.660Z,2.40
2022-10-22T18:24:33.164Z,2.80
2022-10-22T18:27:00.704Z,3.30
2022-10-22T18:29:28.278Z,3.40
2022-10-22T18:31:57.141Z,3.73
2022-10-22T18:34:24.608Z,4.57
2022-10-22T18:36:52.143Z,5.20
2022-10-22T18:39:19.959Z,4.80
2022-10-22T18:41:47.437Z,4.40
2022-10-22T18:44:18.104Z,6.10
2022-10-22T18:46:45.597Z,5.73
2022-10-22T18:49:18.968Z,5.30
2022-10-22T18:51:48.532Z,5.43
2022-10-22T18:54:23.000Z,8.13
2022-10-22T18:56:51.027Z,5.17
2022-10-22T18:59:20.244Z,4.53
2022-10-22T19:01:47.829Z,4.63
2022-10-22T19:04:16.675Z,4.40
2022-10-22T19:06:45.737Z,4.13
2022-10-22T19:09:17.414Z,4.40
2022-10-22T19:11:45.299Z,4.87
2022-10-22T19:14:13.885Z,4.50
2022-10-22T19:16:41.330Z,3.77
2022-10-22T19:19:09.064Z,3.00
2022-10-22T19:21:38.397Z,2.90
2022-10-22T19:24:06.591Z,3.33
2022-10-22T19:26:34.076Z,3.07
2022-10-22T19:29:01.723Z,3.57
2022-10-22T19:31:31.073Z,3.40
2022-10-22T19:33:59.316Z,3.63
2022-10-22T19:36:28.716Z,3.93
2022-10-22T19:38:58.397Z,3.80
2022-10-22T19:41:28.340Z,3.70
2022-10-22T19:43:56.779Z,3.63
2022-10-22T19:46:26.531Z,3.43
2022-10-22T19:48:56.342Z,3.20
2022-10-22T19:51:26.166Z,2.67
2022-10-22T19:53:59.405Z,3.13
2022-10-22T19:56:27.087Z,2.67
2022-10-22T19:58:54.590Z,2.53
2022-10-22T20:01:22.306Z,4.37
2022-10-22T20:03:50.018Z,2.90
2022-10-22T20:06:18.599Z,3.00
2022-10-22T20:08:46.780Z,3.20
2022-10-22T20:11:19.085Z,3.30
2022-10-22T20:13:51.173Z,3.93
2022-10-22T20:16:23.496Z,4.80
2022-10-22T20:18:51.190Z,3.37
2022-10-22T20:21:19.807Z,3.07
2022-10-22T20:23:48.012Z,2.90
2022-10-22T20:26:16.815Z,3.50
2022-10-22T20:28:44.408Z,3.37
2022-10-22T20:31:12.964Z,4.83
2022-10-22T20:33:41.236Z,4.97
2022-10-22T20:36:19.820Z,5.30
2022-10-22T20:38:48.328Z,4.20
2022-10-22T20:41:20.345Z,4.37
2022-10-22T20:43:49.187Z,4.50
2022-10-22T20:46:19.451Z,3.50
2022-10-22T20:48:47.069Z,4.20
2022-10-22T20:51:14.873Z,4.40
2022-10-22T20:53:43.037Z,3.77
2022-10-22T20:56:11.236Z,3.50
2022-10-22T20:58:40.272Z,3.27
2022-10-22T21:01:12.073Z,2.73
2022-10-22T21:03:39.763Z,2.83
2022-10-22T21:06:07.835Z,3.07
2022-10-22T21:08:35.399Z,3.27
2022-10-22T21:11:03.021Z,2.47
2022-10-22T21:13:32.487Z,2.70
2022-10-22T21:16:08.047Z,2.63
2022-10-22T21:18:36.010Z,2.70
2022-10-22T21:21:05.046Z,3.00
2022-10-22T21:23:32.717Z,3.27
2022-10-22T21:26:00.335Z,3.00
2022-10-22T21:28:28.112Z,2.97
2022-10-22T21:30:55.969Z,4.20
2022-10-22T21:33:24.882Z,3.90
2022-10-22T21:35:53.132Z,3.90
2022-10-22T21:38:21.199Z,3.30
2022-10-22T21:40:49.000Z,4.23
2022-10-22T21:43:17.474Z,4.30
2022-10-22T21:45:45.541Z,4.70
2022-10-22T21:48:13.724Z,4.83
2022-10-22T21:50:43.462Z,4.70
2022-10-22T21:53:11.957Z,4.40
2022-10-22T21:55:40.218Z,4.23
2022-10-22T21:58:08.532Z,4.60
2022-10-22T22:00:36.621Z,6.30
2022-10-22T22:03:04.690Z,5.03
2022-10-22T22:05:32.205Z,5.03
2022-10-22T22:08:01.184Z,4.30
2022-10-22T22:10:28.938Z,5.70
2022-10-22T22:12:56.645Z,4.37
2022-10-22T22:15:24.281Z,5.20
2022-10-22T22:17:51.826Z,4.17
2022-10-22T22:20:19.836Z,4.93
2022-10-22T22:22:47.642Z,4.57
2022-10-22T22:25:16.814Z,4.33
2022-10-22T22:27:44.664Z,3.70
2022-10-22T22:30:13.145Z,4.50
2022-10-22T22:32:40.747Z,5.70
2022-10-22T22:35:08.972Z,4.60
2022-10-22T22:37:36.505Z,3.93
2022-10-22T22:40:04.170Z,4.23
2022-10-22T22:42:33.167Z,4.70
2022-10-22T22:45:00.742Z,4.33
2022-10-22T22:47:28.304Z,5.83
2022-10-22T22:49:55.934Z,5.13
2022-10-22T22:52:25.580Z,5.53
2022-10-22T22:54:53.203Z,5.03
2022-10-22T22:57:21.218Z,4.73
2022-10-22T22:59:52.066Z,4.60
2022-10-22T23:02:19.885Z,5.90
2022-10-22T23:04:47.488Z,5.40
2022-10-22T23:07:15.156Z,5.30
2022-10-22T23:09:42.701Z,5.80
2022-10-22T23:12:10.350Z,5.63
2022-10-22T23:14:37.976Z,5.50
2022-10-22T23:17:07.040Z,4.23
2022-10-22T23:19:34.756Z,5.40
2022-10-22T23:22:02.511Z,4.50
2022-10-22T23:24:30.415Z,4.33
2022-10-22T23:27:01.191Z,5.20
2022-10-22T23:29:30.190Z,5.40
2022-10-22T23:32:01.139Z,4.60
2022-10-22T23:34:31.345Z,4.20
2022-10-22T23:36:59.983Z,4.10
2022-10-22T23:39:29.106Z,4.73
2022-10-22T23:41:57.000Z,5.07
2022-10-22T23:44:25.270Z,5.07
2022-10-22T23:46:52.931Z,4.83
2022-10-22T23:49:20.568Z,4.40
2022-10-22T23:51:49.498Z,4.67
2022-10-22T23:54:18.936Z,4.83
2022-10-22T23:56:46.889Z,3.50
